sensor_id;sensor_type;location;lat;lon;timestamp;P1;durP1;ratioP1;P2;durP2;ratioP2
71734;SDS011;59577;52.122;5.406;2024-01-25T00:00:07;14.50;;;1.40;;
71734;SDS011;59577;52.122;5.406;2024-01-25T00:02:34;24.70;;;1.92;;
71734;SDS011;59577;52.122;5.406;2024-01-25T00:05:00;20.13;;;1.70;;
71734;SDS011;59577;52.122;5.406;2024-01-25T00:07:27;18.17;;;1.65;;
71734;SDS011;59577;52.122;5.406;2024-01-25T00:09:54;12.15;;;1.83;;
71734;SDS011;59577;52.122;5.406;2024-01-25T00:12:20;17.17;;;2.17;;
71734;SDS011;59577;52.122;5.406;2024-01-25T00:14:47;17.50;;;2.60;;
71734;SDS011;59577;52.122;5.406;2024-01-25T00:17:14;15.48;;;2.03;;
71734;SDS011;59577;52.122;5.406;2024-01-25T00:19:40;15.60;;;1.85;;
71734;SDS011;59577;52.122;5.406;2024-01-25T00:22:07;9.20;;;1.63;;
71734;SDS011;59577;52.122;5.406;2024-01-25T00:24:34;22.60;;;1.60;;
71734;SDS011;59577;52.122;5.406;2024-01-25T00:27:00;17.80;;;2.50;;
71734;SDS011;59577;52.122;5.406;2024-01-25T00:29:27;20.50;;;2.58;;
71734;SDS011;59577;52.122;5.406;2024-01-25T00:31:54;26.73;;;2.45;;
71734;SDS011;59577;52.122;5.406;2024-01-25T00:34:20;20.00;;;2.20;;
71734;SDS011;59577;52.122;5.406;2024-01-25T00:36:47;21.80;;;1.70;;
71734;SDS011;59577;52.122;5.406;2024-01-25T00:39:14;15.90;;;1.63;;
71734;SDS011;59577;52.122;5.406;2024-01-25T00:41:41;14.48;;;1.88;;
71734;SDS011;59577;52.122;5.406;2024-01-25T00:44:10;19.08;;;1.70;;
71734;SDS011;59577;52.122;5.406;2024-01-25T00:46:37;14.77;;;2.42;;
71734;SDS011;59577;52.122;5.406;2024-01-25T00:49:03;21.53;;;1.30;;
71734;SDS011;59577;52.122;5.406;2024-01-25T00:51:30;18.77;;;1.95;;
71734;SDS011;59577;52.122;5.406;2024-01-25T00:53:57;21.63;;;1.95;;
71734;SDS011;59577;52.122;5.406;2024-01-25T00:56:24;10.52;;;1.13;;
71734;SDS011;59577;52.122;5.406;2024-01-25T00:58:51;16.40;;;2.15;;
71734;SDS011;59577;52.122;5.406;2024-01-25T01:01:18;13.37;;;1.47;;
71734;SDS011;59577;52.122;5.406;2024-01-25T01:03:47;11.13;;;1.30;;
71734;SDS011;59577;52.122;5.406;2024-01-25T01:06:19;14.10;;;1.75;;
71734;SDS011;59577;52.122;5.406;2024-01-25T01:08:46;10.82;;;1.63;;
71734;SDS011;59577;52.122;5.406;2024-01-25T01:11:13;17.92;;;2.80;;
71734;SDS011;59577;52.122;5.406;2024-01-25T01:13:40;13.43;;;1.30;;
71734;SDS011;59577;52.122;5.406;2024-01-25T01:16:06;19.00;;;1.48;;
71734;SDS011;59577;52.122;5.406;2024-01-25T01:18:33;22.67;;;2.45;;
71734;SDS011;59577;52.122;5.406;2024-01-25T01:21:00;15.68;;;1.38;;
71734;SDS011;59577;52.122;5.406;2024-01-25T01:23:26;18.58;;;1.92;;
71734;SDS011;59577;52.122;5.406;2024-01-25T01:25:52;16.03;;;2.17;;
71734;SDS011;59577;52.122;5.406;2024-01-25T01:28:19;17.85;;;1.83;;
71734;SDS011;59577;52.122;5.406;2024-01-25T01:30:45;15.25;;;1.67;;
71734;SDS011;59577;52.122;5.406;2024-01-25T01:33:12;16.52;;;1.83;;
71734;SDS011;59577;52.122;5.406;2024-01-25T01:35:39;22.85;;;2.30;;
71734;SDS011;59577;52.122;5.406;2024-01-25T01:38:06;17.90;;;1.97;;
71734;SDS011;59577;52.122;5.406;2024-01-25T01:40:33;18.85;;;2.63;;
71734;SDS011;59577;52.122;5.406;2024-01-25T01:42:59;21.70;;;1.92;;
71734;SDS011;59577;52.122;5.406;2024-01-25T01:45:27;23.10;;;2.10;;
71734;SDS011;59577;52.122;5.406;2024-01-25T01:47:54;12.75;;;1.77;;
71734;SDS011;59577;52.122;5.406;2024-01-25T01:50:22;20.57;;;2.13;;
71734;SDS011;59577;52.122;5.406;2024-01-25T01:52:49;13.27;;;1.60;;
71734;SDS011;59577;52.122;5.406;2024-01-25T01:55:17;18.48;;;1.80;;
71734;SDS011;59577;52.122;5.406;2024-01-25T01:57:44;20.70;;;2.33;;
71734;SDS011;59577;52.122;5.406;2024-01-25T02:00:14;14.50;;;1.75;;
71734;SDS011;59577;52.122;5.406;2024-01-25T02:02:42;17.00;;;2.47;;
71734;SDS011;59577;52.122;5.406;2024-01-25T02:05:09;17.65;;;1.80;;
71734;SDS011;59577;52.122;5.406;2024-01-25T02:07:37;21.05;;;1.75;;
71734;SDS011;59577;52.122;5.406;2024-01-25T02:10:04;17.55;;;1.90;;
71734;SDS011;59577;52.122;5.406;2024-01-25T02:12:31;18.00;;;1.98;;
71734;SDS011;59577;52.122;5.406;2024-01-25T02:14:58;16.47;;;1.90;;
71734;SDS011;59577;52.122;5.406;2024-01-25T02:17:24;15.48;;;2.15;;
71734;SDS011;59577;52.122;5.406;2024-01-25T02:19:51;12.23;;;1.83;;
71734;SDS011;59577;52.122;5.406;2024-01-25T02:22:20;22.52;;;2.70;;
71734;SDS011;59577;52.122;5.406;2024-01-25T02:24:47;22.85;;;1.30;;
71734;SDS011;59577;52.122;5.406;2024-01-25T02:27:14;17.77;;;1.73;;
71734;SDS011;59577;52.122;5.406;2024-01-25T02:29:41;13.05;;;2.20;;
71734;SDS011;59577;52.122;5.406;2024-01-25T02:32:07;14.45;;;1.60;;
71734;SDS011;59577;52.122;5.406;2024-01-25T02:34:33;22.33;;;2.03;;
71734;SDS011;59577;52.122;5.406;2024-01-25T02:37:00;14.55;;;1.88;;
71734;SDS011;59577;52.122;5.406;2024-01-25T02:39:27;15.47;;;1.40;;
71734;SDS011;59577;52.122;5.406;2024-01-25T02:41:53;17.88;;;1.60;;
71734;SDS011;59577;52.122;5.406;2024-01-25T02:44:20;22.30;;;2.28;;
71734;SDS011;59577;52.122;5.406;2024-01-25T02:46:46;20.25;;;2.65;;
71734;SDS011;59577;52.122;5.406;2024-01-25T02:49:13;19.55;;;1.40;;
71734;SDS011;59577;52.122;5.406;2024-01-25T02:51:40;18.90;;;1.87;;
71734;SDS011;59577;52.122;5.406;2024-01-25T02:54:06;12.10;;;1.08;;
71734;SDS011;59577;52.122;5.406;2024-01-25T02:56:33;15.25;;;1.85;;
71734;SDS011;59577;52.122;5.406;2024-01-25T02:59:01;18.38;;;2.05;;
71734;SDS011;59577;52.122;5.406;2024-01-25T03:01:28;12.40;;;1.52;;
71734;SDS011;59577;52.122;5.406;2024-01-25T03:03:54;12.97;;;1.97;;
71734;SDS011;59577;52.122;5.406;2024-01-25T03:06:21;15.45;;;1.33;;
71734;SDS011;59577;52.122;5.406;2024-01-25T03:08:48;15.27;;;1.65;;
71734;SDS011;59577;52.122;5.406;2024-01-25T03:11:15;17.35;;;1.77;;
71734;SDS011;59577;52.122;5.406;2024-01-25T03:13:42;12.23;;;1.60;;
71734;SDS011;59577;52.122;5.406;2024-01-25T03:16:08;11.13;;;1.80;;
71734;SDS011;59577;52.122;5.406;2024-01-25T03:18:35;13.07;;;1.85;;
71734;SDS011;59577;52.122;5.406;2024-01-25T03:21:02;12.98;;;1.75;;
71734;SDS011;59577;52.122;5.406;2024-01-25T03:23:28;15.35;;;2.20;;
71734;SDS011;59577;52.122;5.406;2024-01-25T03:25:55;15.20;;;1.33;;
71734;SDS011;59577;52.122;5.406;2024-01-25T03:28:21;20.47;;;2.40;;
71734;SDS011;59577;52.122;5.406;2024-01-25T03:30:48;10.95;;;1.55;;
71734;SDS011;59577;52.122;5.406;2024-01-25T03:33:16;16.85;;;1.83;;
71734;SDS011;59577;52.122;5.406;2024-01-25T03:35:43;15.88;;;1.75;;
71734;SDS011;59577;52.122;5.406;2024-01-25T03:38:09;12.50;;;1.50;;
71734;SDS011;59577;52.122;5.406;2024-01-25T03:40:36;14.73;;;1.70;;
71734;SDS011;59577;52.122;5.406;2024-01-25T03:43:02;17.25;;;1.63;;
71734;SDS011;59577;52.122;5.406;2024-01-25T03:45:44;16.60;;;1.20;;
71734;SDS011;59577;52.122;5.406;2024-01-25T03:48:10;10.43;;;0.88;;
71734;SDS011;59577;52.122;5.406;2024-01-25T03:50:37;15.15;;;1.35;;
71734;SDS011;59577;52.122;5.406;2024-01-25T03:53:04;12.40;;;1.90;;
71734;SDS011;59577;52.122;5.406;2024-01-25T03:55:32;11.15;;;1.38;;
71734;SDS011;59577;52.122;5.406;2024-01-25T03:57:59;20.65;;;1.65;;
71734;SDS011;59577;52.122;5.406;2024-01-25T04:00:25;19.98;;;2.00;;
71734;SDS011;59577;52.122;5.406;2024-01-25T04:02:52;18.58;;;1.92;;
71734;SDS011;59577;52.122;5.406;2024-01-25T04:05:18;20.20;;;1.77;;
71734;SDS011;59577;52.122;5.406;2024-01-25T04:07:45;14.80;;;1.73;;
71734;SDS011;59577;52.122;5.406;2024-01-25T04:10:11;10.98;;;1.40;;
71734;SDS011;59577;52.122;5.406;2024-01-25T04:12:38;15.90;;;1.73;;
71734;SDS011;59577;52.122;5.406;2024-01-25T04:15:05;15.10;;;1.95;;
71734;SDS011;59577;52.122;5.406;2024-01-25T04:17:32;14.13;;;1.43;;
71734;SDS011;59577;52.122;5.406;2024-01-25T04:19:59;34.97;;;3.22;;
71734;SDS011;59577;52.122;5.406;2024-01-25T04:22:26;11.68;;;1.52;;
71734;SDS011;59577;52.122;5.406;2024-01-25T04:24:52;14.43;;;1.45;;
71734;SDS011;59577;52.122;5.406;2024-01-25T04:27:19;13.80;;;1.30;;
71734;SDS011;59577;52.122;5.406;2024-01-25T04:29:45;12.67;;;1.53;;
71734;SDS011;59577;52.122;5.406;2024-01-25T04:32:12;12.20;;;1.55;;
71734;SDS011;59577;52.122;5.406;2024-01-25T04:34:39;15.10;;;1.70;;
71734;SDS011;59577;52.122;5.406;2024-01-25T04:37:06;12.73;;;1.13;;
71734;SDS011;59577;52.122;5.406;2024-01-25T04:39:32;17.95;;;1.52;;
71734;SDS011;59577;52.122;5.406;2024-01-25T04:41:59;17.80;;;1.37;;
71734;SDS011;59577;52.122;5.406;2024-01-25T04:44:25;13.38;;;1.10;;
71734;SDS011;59577;52.122;5.406;2024-01-25T04:46:52;12.30;;;1.75;;
71734;SDS011;59577;52.122;5.406;2024-01-25T04:49:20;19.63;;;1.70;;
71734;SDS011;59577;52.122;5.406;2024-01-25T04:51:46;14.68;;;1.60;;
71734;SDS011;59577;52.122;5.406;2024-01-25T04:54:13;18.27;;;1.80;;
71734;SDS011;59577;52.122;5.406;2024-01-25T04:56:41;14.75;;;1.52;;
71734;SDS011;59577;52.122;5.406;2024-01-25T04:59:09;19.50;;;2.20;;
71734;SDS011;59577;52.122;5.406;2024-01-25T05:01:35;11.77;;;1.48;;
71734;SDS011;59577;52.122;5.406;2024-01-25T05:04:02;12.75;;;1.08;;
71734;SDS011;59577;52.122;5.406;2024-01-25T05:06:29;16.57;;;1.43;;
71734;SDS011;59577;52.122;5.406;2024-01-25T05:08:56;21.50;;;1.92;;
71734;SDS011;59577;52.122;5.406;2024-01-25T05:11:23;20.23;;;1.60;;
71734;SDS011;59577;52.122;5.406;2024-01-25T05:13:49;21.13;;;2.05;;
71734;SDS011;59577;52.122;5.406;2024-01-25T05:16:17;24.52;;;2.35;;
71734;SDS011;59577;52.122;5.406;2024-01-25T05:18:43;22.57;;;1.67;;
71734;SDS011;59577;52.122;5.406;2024-01-25T05:21:10;16.55;;;1.40;;
71734;SDS011;59577;52.122;5.406;2024-01-25T05:23:37;20.77;;;1.73;;
71734;SDS011;59577;52.122;5.406;2024-01-25T05:26:03;14.73;;;2.03;;
71734;SDS011;59577;52.122;5.406;2024-01-25T05:28:30;17.63;;;2.03;;
71734;SDS011;59577;52.122;5.406;2024-01-25T05:30:57;23.33;;;2.40;;
71734;SDS011;59577;52.122;5.406;2024-01-25T05:33:23;14.30;;;1.80;;
71734;SDS011;59577;52.122;5.406;2024-01-25T05:35:50;23.13;;;2.53;;
71734;SDS011;59577;52.122;5.406;2024-01-25T05:38:16;16.00;;;1.38;;
71734;SDS011;59577;52.122;5.406;2024-01-25T05:40:43;17.63;;;2.22;;
71734;SDS011;59577;52.122;5.406;2024-01-25T05:43:10;15.00;;;1.90;;
71734;SDS011;59577;52.122;5.406;2024-01-25T05:45:36;20.35;;;2.13;;
71734;SDS011;59577;52.122;5.406;2024-01-25T05:48:03;23.42;;;1.92;;
71734;SDS011;59577;52.122;5.406;2024-01-25T05:50:30;25.48;;;2.13;;
71734;SDS011;59577;52.122;5.406;2024-01-25T05:52:56;12.45;;;1.75;;
71734;SDS011;59577;52.122;5.406;2024-01-25T05:55:23;10.37;;;1.40;;
71734;SDS011;59577;52.122;5.406;2024-01-25T05:57:49;16.75;;;2.10;;
71734;SDS011;59577;52.122;5.406;2024-01-25T06:00:16;18.88;;;2.35;;
71734;SDS011;59577;52.122;5.406;2024-01-25T06:02:46;15.52;;;2.00;;
71734;SDS011;59577;52.122;5.406;2024-01-25T06:05:13;17.15;;;1.23;;
71734;SDS011;59577;52.122;5.406;2024-01-25T06:07:40;14.90;;;1.67;;
71734;SDS011;59577;52.122;5.406;2024-01-25T06:10:07;20.63;;;1.95;;
71734;SDS011;59577;52.122;5.406;2024-01-25T06:12:35;21.10;;;2.80;;
71734;SDS011;59577;52.122;5.406;2024-01-25T06:15:01;25.15;;;2.38;;
71734;SDS011;59577;52.122;5.406;2024-01-25T06:17:28;16.02;;;1.67;;
71734;SDS011;59577;52.122;5.406;2024-01-25T06:19:55;17.43;;;1.63;;
71734;SDS011;59577;52.122;5.406;2024-01-25T06:22:21;19.35;;;2.20;;
71734;SDS011;59577;52.122;5.406;2024-01-25T06:24:48;11.63;;;1.67;;
71734;SDS011;59577;52.122;5.406;2024-01-25T06:27:15;13.43;;;1.20;;
71734;SDS011;59577;52.122;5.406;2024-01-25T06:29:41;15.68;;;2.47;;
71734;SDS011;59577;52.122;5.406;2024-01-25T06:32:09;17.33;;;1.70;;
71734;SDS011;59577;52.122;5.406;2024-01-25T06:34:44;10.50;;;1.58;;
71734;SDS011;59577;52.122;5.406;2024-01-25T06:37:11;14.15;;;1.58;;
71734;SDS011;59577;52.122;5.406;2024-01-25T06:39:41;17.65;;;2.22;;
71734;SDS011;59577;52.122;5.406;2024-01-25T06:42:08;23.77;;;2.47;;
71734;SDS011;59577;52.122;5.406;2024-01-25T06:44:34;17.23;;;2.63;;
71734;SDS011;59577;52.122;5.406;2024-01-25T06:47:01;29.27;;;3.22;;
71734;SDS011;59577;52.122;5.406;2024-01-25T06:49:27;20.83;;;2.35;;
71734;SDS011;59577;52.122;5.406;2024-01-25T06:51:54;21.23;;;3.38;;
71734;SDS011;59577;52.122;5.406;2024-01-25T06:54:21;24.90;;;2.85;;
71734;SDS011;59577;52.122;5.406;2024-01-25T06:56:47;21.53;;;3.33;;
71734;SDS011;59577;52.122;5.406;2024-01-25T06:59:14;20.27;;;3.67;;
71734;SDS011;59577;52.122;5.406;2024-01-25T07:01:40;19.33;;;2.92;;
71734;SDS011;59577;52.122;5.406;2024-01-25T07:04:07;18.73;;;3.60;;
71734;SDS011;59577;52.122;5.406;2024-01-25T07:06:34;20.00;;;3.47;;
71734;SDS011;59577;52.122;5.406;2024-01-25T07:09:01;16.37;;;3.03;;
71734;SDS011;59577;52.122;5.406;2024-01-25T07:11:28;21.58;;;3.47;;
71734;SDS011;59577;52.122;5.406;2024-01-25T07:13:55;18.10;;;2.85;;
71734;SDS011;59577;52.122;5.406;2024-01-25T07:16:22;17.30;;;3.35;;
71734;SDS011;59577;52.122;5.406;2024-01-25T07:18:50;22.55;;;3.20;;
71734;SDS011;59577;52.122;5.406;2024-01-25T07:21:17;17.47;;;3.03;;
71734;SDS011;59577;52.122;5.406;2024-01-25T07:23:43;19.67;;;2.80;;
71734;SDS011;59577;52.122;5.406;2024-01-25T07:26:15;17.95;;;3.20;;
71734;SDS011;59577;52.122;5.406;2024-01-25T07:28:43;18.60;;;2.35;;
71734;SDS011;59577;52.122;5.406;2024-01-25T07:31:09;27.02;;;4.22;;
71734;SDS011;59577;52.122;5.406;2024-01-25T07:33:36;20.80;;;3.23;;
71734;SDS011;59577;52.122;5.406;2024-01-25T07:36:03;18.17;;;3.22;;
71734;SDS011;59577;52.122;5.406;2024-01-25T07:38:30;23.17;;;3.17;;
71734;SDS011;59577;52.122;5.406;2024-01-25T07:40:56;23.25;;;3.55;;
71734;SDS011;59577;52.122;5.406;2024-01-25T07:43:23;26.95;;;3.72;;
71734;SDS011;59577;52.122;5.406;2024-01-25T07:45:50;14.90;;;3.40;;
71734;SDS011;59577;52.122;5.406;2024-01-25T07:48:19;22.88;;;4.10;;
71734;SDS011;59577;52.122;5.406;2024-01-25T07:50:46;24.90;;;5.70;;
71734;SDS011;59577;52.122;5.406;2024-01-25T07:53:12;27.40;;;4.57;;
71734;SDS011;59577;52.122;5.406;2024-01-25T07:55:40;22.65;;;5.93;;
71734;SDS011;59577;52.122;5.406;2024-01-25T07:58:07;25.97;;;5.70;;
71734;SDS011;59577;52.122;5.406;2024-01-25T08:00:33;30.63;;;4.90;;
71734;SDS011;59577;52.122;5.406;2024-01-25T08:03:00;13.63;;;4.65;;
71734;SDS011;59577;52.122;5.406;2024-01-25T08:05:27;16.17;;;5.55;;
71734;SDS011;59577;52.122;5.406;2024-01-25T08:08:09;24.52;;;5.22;;
71734;SDS011;59577;52.122;5.406;2024-01-25T08:10:36;30.33;;;6.70;;
71734;SDS011;59577;52.122;5.406;2024-01-25T08:13:03;16.70;;;6.50;;
71734;SDS011;59577;52.122;5.406;2024-01-25T08:15:33;21.98;;;7.25;;
71734;SDS011;59577;52.122;5.406;2024-01-25T08:18:00;32.72;;;6.60;;
71734;SDS011;59577;52.122;5.406;2024-01-25T08:20:26;24.90;;;6.60;;
71734;SDS011;59577;52.122;5.406;2024-01-25T08:22:53;18.30;;;4.47;;
71734;SDS011;59577;52.122;5.406;2024-01-25T08:25:20;20.52;;;5.57;;
71734;SDS011;59577;52.122;5.406;2024-01-25T08:27:46;33.38;;;5.95;;
71734;SDS011;59577;52.122;5.406;2024-01-25T08:30:13;27.13;;;4.30;;
71734;SDS011;59577;52.122;5.406;2024-01-25T08:32:40;19.55;;;4.63;;
71734;SDS011;59577;52.122;5.406;2024-01-25T08:35:07;31.47;;;4.97;;
71734;SDS011;59577;52.122;5.406;2024-01-25T08:37:34;24.85;;;4.15;;
71734;SDS011;59577;52.122;5.406;2024-01-25T08:40:02;19.02;;;3.90;;
71734;SDS011;59577;52.122;5.406;2024-01-25T08:42:30;15.10;;;3.33;;
71734;SDS011;59577;52.122;5.406;2024-01-25T08:44:57;18.55;;;3.30;;
71734;SDS011;59577;52.122;5.406;2024-01-25T08:47:23;21.47;;;3.60;;
71734;SDS011;59577;52.122;5.406;2024-01-25T08:49:49;22.73;;;2.67;;
71734;SDS011;59577;52.122;5.406;2024-01-25T08:52:16;15.35;;;2.70;;
71734;SDS011;59577;52.122;5.406;2024-01-25T08:54:42;15.57;;;2.60;;
71734;SDS011;59577;52.122;5.406;2024-01-25T08:57:09;17.63;;;3.60;;
71734;SDS011;59577;52.122;5.406;2024-01-25T08:59:36;23.43;;;3.43;;
71734;SDS011;59577;52.122;5.406;2024-01-25T09:02:04;15.50;;;2.65;;
71734;SDS011;59577;52.122;5.406;2024-01-25T09:04:32;19.67;;;2.60;;
71734;SDS011;59577;52.122;5.406;2024-01-25T09:06:59;16.95;;;2.65;;
71734;SDS011;59577;52.122;5.406;2024-01-25T09:09:26;20.77;;;2.83;;
71734;SDS011;59577;52.122;5.406;2024-01-25T09:11:52;18.70;;;2.67;;
71734;SDS011;59577;52.122;5.406;2024-01-25T09:14:19;12.73;;;2.17;;
71734;SDS011;59577;52.122;5.406;2024-01-25T09:16:47;20.52;;;3.08;;
71734;SDS011;59577;52.122;5.406;2024-01-25T09:19:14;19.52;;;2.78;;
71734;SDS011;59577;52.122;5.406;2024-01-25T09:21:42;18.35;;;3.40;;
71734;SDS011;59577;52.122;5.406;2024-01-25T09:24:09;20.43;;;2.70;;
71734;SDS011;59577;52.122;5.406;2024-01-25T09:26:36;22.65;;;3.00;;
71734;SDS011;59577;52.122;5.406;2024-01-25T09:29:03;15.45;;;2.40;;
71734;SDS011;59577;52.122;5.406;2024-01-25T09:31:30;21.75;;;2.63;;
71734;SDS011;59577;52.122;5.406;2024-01-25T09:33:56;16.98;;;2.70;;
71734;SDS011;59577;52.122;5.406;2024-01-25T09:36:23;17.10;;;2.40;;
71734;SDS011;59577;52.122;5.406;2024-01-25T09:38:50;17.58;;;3.20;;
71734;SDS011;59577;52.122;5.406;2024-01-25T09:41:16;15.48;;;2.00;;
71734;SDS011;59577;52.122;5.406;2024-01-25T09:43:43;19.42;;;3.00;;
71734;SDS011;59577;52.122;5.406;2024-01-25T09:46:11;21.85;;;2.88;;
71734;SDS011;59577;52.122;5.406;2024-01-25T09:48:41;19.17;;;3.80;;
71734;SDS011;59577;52.122;5.406;2024-01-25T09:51:11;22.17;;;4.18;;
71734;SDS011;59577;52.122;5.406;2024-01-25T09:53:38;28.88;;;4.85;;
71734;SDS011;59577;52.122;5.406;2024-01-25T09:56:09;18.55;;;3.55;;
71734;SDS011;59577;52.122;5.406;2024-01-25T09:58:39;21.80;;;3.47;;
71734;SDS011;59577;52.122;5.406;2024-01-25T10:01:08;31.43;;;3.63;;
71734;SDS011;59577;52.122;5.406;2024-01-25T10:03:39;22.48;;;3.45;;
71734;SDS011;59577;52.122;5.406;2024-01-25T10:06:08;20.15;;;3.20;;
71734;SDS011;59577;52.122;5.406;2024-01-25T10:08:37;20.92;;;3.25;;
71734;SDS011;59577;52.122;5.406;2024-01-25T10:11:05;26.90;;;3.60;;
71734;SDS011;59577;52.122;5.406;2024-01-25T10:13:31;16.47;;;2.70;;
71734;SDS011;59577;52.122;5.406;2024-01-25T10:15:58;31.20;;;3.05;;
71734;SDS011;59577;52.122;5.406;2024-01-25T10:18:25;20.73;;;2.78;;
71734;SDS011;59577;52.122;5.406;2024-01-25T10:20:56;12.25;;;2.30;;
71734;SDS011;59577;52.122;5.406;2024-01-25T10:23:23;28.35;;;3.30;;
71734;SDS011;59577;52.122;5.406;2024-01-25T10:25:52;30.67;;;3.40;;
71734;SDS011;59577;52.122;5.406;2024-01-25T10:28:18;17.80;;;2.72;;
71734;SDS011;59577;52.122;5.406;2024-01-25T10:30:45;17.60;;;2.97;;
71734;SDS011;59577;52.122;5.406;2024-01-25T10:33:13;16.35;;;2.53;;
71734;SDS011;59577;52.122;5.406;2024-01-25T10:35:40;20.65;;;2.80;;
71734;SDS011;59577;52.122;5.406;2024-01-25T10:38:11;21.80;;;3.03;;
71734;SDS011;59577;52.122;5.406;2024-01-25T10:40:38;24.05;;;3.35;;
71734;SDS011;59577;52.122;5.406;2024-01-25T10:43:09;21.95;;;3.42;;
71734;SDS011;59577;52.122;5.406;2024-01-25T10:45:36;24.80;;;3.50;;
71734;SDS011;59577;52.122;5.406;2024-01-25T10:48:03;23.05;;;3.58;;
71734;SDS011;59577;52.122;5.406;2024-01-25T10:50:30;16.77;;;2.80;;
71734;SDS011;59577;52.122;5.406;2024-01-25T10:52:57;18.77;;;2.85;;
71734;SDS011;59577;52.122;5.406;2024-01-25T10:55:24;26.98;;;3.08;;
71734;SDS011;59577;52.122;5.406;2024-01-25T10:57:52;21.55;;;3.50;;
71734;SDS011;59577;52.122;5.406;2024-01-25T11:00:18;20.70;;;3.13;;
71734;SDS011;59577;52.122;5.406;2024-01-25T11:02:47;22.67;;;3.87;;
71734;SDS011;59577;52.122;5.406;2024-01-25T11:05:16;25.67;;;3.28;;
71734;SDS011;59577;52.122;5.406;2024-01-25T11:07:46;16.30;;;2.90;;
71734;SDS011;59577;52.122;5.406;2024-01-25T11:10:18;24.83;;;3.35;;
71734;SDS011;59577;52.122;5.406;2024-01-25T11:12:48;29.20;;;3.80;;
71734;SDS011;59577;52.122;5.406;2024-01-25T11:15:20;23.40;;;2.80;;
71734;SDS011;59577;52.122;5.406;2024-01-25T11:17:56;17.58;;;3.25;;
71734;SDS011;59577;52.122;5.406;2024-01-25T11:20:25;20.33;;;3.60;;
71734;SDS011;59577;52.122;5.406;2024-01-25T11:22:56;30.10;;;3.05;;
71734;SDS011;59577;52.122;5.406;2024-01-25T11:25:26;22.35;;;3.88;;
71734;SDS011;59577;52.122;5.406;2024-01-25T11:27:54;24.37;;;2.67;;
71734;SDS011;59577;52.122;5.406;2024-01-25T11:30:21;16.90;;;2.65;;
71734;SDS011;59577;52.122;5.406;2024-01-25T11:32:48;21.63;;;2.65;;
71734;SDS011;59577;52.122;5.406;2024-01-25T11:35:16;18.15;;;2.60;;
71734;SDS011;59577;52.122;5.406;2024-01-25T11:37:44;22.23;;;3.72;;
71734;SDS011;59577;52.122;5.406;2024-01-25T11:40:12;19.60;;;4.03;;
71734;SDS011;59577;52.122;5.406;2024-01-25T11:42:45;18.08;;;3.03;;
71734;SDS011;59577;52.122;5.406;2024-01-25T11:45:14;24.45;;;3.05;;
71734;SDS011;59577;52.122;5.406;2024-01-25T11:47:41;20.23;;;3.25;;
71734;SDS011;59577;52.122;5.406;2024-01-25T11:50:09;22.92;;;3.03;;
71734;SDS011;59577;52.122;5.406;2024-01-25T11:52:37;15.90;;;3.40;;
71734;SDS011;59577;52.122;5.406;2024-01-25T11:55:08;21.77;;;3.70;;
71734;SDS011;59577;52.122;5.406;2024-01-25T11:57:42;28.65;;;4.60;;
71734;SDS011;59577;52.122;5.406;2024-01-25T12:00:09;17.02;;;3.53;;
71734;SDS011;59577;52.122;5.406;2024-01-25T12:02:39;18.30;;;3.45;;
71734;SDS011;59577;52.122;5.406;2024-01-25T12:05:08;23.30;;;3.67;;
71734;SDS011;59577;52.122;5.406;2024-01-25T12:07:38;26.42;;;4.05;;
71734;SDS011;59577;52.122;5.406;2024-01-25T12:10:07;23.50;;;3.83;;
71734;SDS011;59577;52.122;5.406;2024-01-25T12:12:35;23.80;;;4.10;;
71734;SDS011;59577;52.122;5.406;2024-01-25T12:15:04;25.10;;;3.58;;
71734;SDS011;59577;52.122;5.406;2024-01-25T12:17:32;25.67;;;3.83;;
71734;SDS011;59577;52.122;5.406;2024-01-25T12:20:00;24.63;;;3.42;;
71734;SDS011;59577;52.122;5.406;2024-01-25T12:22:27;20.58;;;3.92;;
71734;SDS011;59577;52.122;5.406;2024-01-25T12:24:55;22.05;;;3.85;;
71734;SDS011;59577;52.122;5.406;2024-01-25T12:27:26;27.38;;;4.00;;
71734;SDS011;59577;52.122;5.406;2024-01-25T12:29:53;24.83;;;4.13;;
71734;SDS011;59577;52.122;5.406;2024-01-25T12:32:20;18.27;;;2.88;;
71734;SDS011;59577;52.122;5.406;2024-01-25T12:34:56;16.88;;;3.67;;
71734;SDS011;59577;52.122;5.406;2024-01-25T12:37:24;19.77;;;3.92;;
71734;SDS011;59577;52.122;5.406;2024-01-25T12:39:52;25.25;;;4.07;;
71734;SDS011;59577;52.122;5.406;2024-01-25T12:42:19;31.00;;;4.00;;
71734;SDS011;59577;52.122;5.406;2024-01-25T12:44:46;21.08;;;3.97;;
71734;SDS011;59577;52.122;5.406;2024-01-25T12:47:14;22.58;;;3.67;;
71734;SDS011;59577;52.122;5.406;2024-01-25T12:49:41;20.65;;;3.38;;
71734;SDS011;59577;52.122;5.406;2024-01-25T12:52:09;24.27;;;3.60;;
71734;SDS011;59577;52.122;5.406;2024-01-25T12:54:37;32.63;;;3.90;;
71734;SDS011;59577;52.122;5.406;2024-01-25T12:57:04;24.85;;;4.07;;
71734;SDS011;59577;52.122;5.406;2024-01-25T12:59:32;22.45;;;4.32;;
71734;SDS011;59577;52.122;5.406;2024-01-25T13:01:59;23.42;;;4.80;;
71734;SDS011;59577;52.122;5.406;2024-01-25T13:04:26;26.83;;;4.57;;
71734;SDS011;59577;52.122;5.406;2024-01-25T13:06:54;28.23;;;4.33;;
71734;SDS011;59577;52.122;5.406;2024-01-25T13:09:21;25.17;;;4.20;;
71734;SDS011;59577;52.122;5.406;2024-01-25T13:11:48;26.65;;;4.70;;
71734;SDS011;59577;52.122;5.406;2024-01-25T13:14:16;21.90;;;4.07;;
71734;SDS011;59577;52.122;5.406;2024-01-25T13:16:42;22.17;;;3.88;;
71734;SDS011;59577;52.122;5.406;2024-01-25T13:19:09;18.70;;;3.90;;
71734;SDS011;59577;52.122;5.406;2024-01-25T13:21:38;26.77;;;4.57;;
71734;SDS011;59577;52.122;5.406;2024-01-25T13:24:05;22.35;;;4.22;;
71734;SDS011;59577;52.122;5.406;2024-01-25T13:26:34;28.75;;;4.78;;
71734;SDS011;59577;52.122;5.406;2024-01-25T13:29:01;16.88;;;3.70;;
71734;SDS011;59577;52.122;5.406;2024-01-25T13:31:28;28.10;;;5.03;;
71734;SDS011;59577;52.122;5.406;2024-01-25T13:33:54;21.73;;;4.68;;
71734;SDS011;59577;52.122;5.406;2024-01-25T13:36:21;23.38;;;5.03;;
71734;SDS011;59577;52.122;5.406;2024-01-25T13:38:47;28.42;;;5.30;;
71734;SDS011;59577;52.122;5.406;2024-01-25T13:41:14;27.00;;;4.60;;
71734;SDS011;59577;52.122;5.406;2024-01-25T13:43:41;19.47;;;4.83;;
71734;SDS011;59577;52.122;5.406;2024-01-25T13:46:07;24.10;;;4.70;;
71734;SDS011;59577;52.122;5.406;2024-01-25T13:48:34;23.83;;;4.80;;
71734;SDS011;59577;52.122;5.406;2024-01-25T13:51:00;29.90;;;5.43;;
71734;SDS011;59577;52.122;5.406;2024-01-25T13:53:27;24.27;;;6.13;;
71734;SDS011;59577;52.122;5.406;2024-01-25T13:55:53;21.70;;;6.17;;
71734;SDS011;59577;52.122;5.406;2024-01-25T13:58:20;33.88;;;5.75;;
71734;SDS011;59577;52.122;5.406;2024-01-25T14:00:46;26.27;;;5.70;;
71734;SDS011;59577;52.122;5.406;2024-01-25T14:03:14;27.30;;;6.20;;
71734;SDS011;59577;52.122;5.406;2024-01-25T14:05:44;27.95;;;5.53;;
71734;SDS011;59577;52.122;5.406;2024-01-25T14:08:11;22.37;;;4.40;;
71734;SDS011;59577;52.122;5.406;2024-01-25T14:10:38;23.55;;;4.95;;
71734;SDS011;59577;52.122;5.406;2024-01-25T14:13:05;27.27;;;5.60;;
71734;SDS011;59577;52.122;5.406;2024-01-25T14:15:32;27.75;;;5.75;;
71734;SDS011;59577;52.122;5.406;2024-01-25T14:18:01;22.65;;;5.80;;
71734;SDS011;59577;52.122;5.406;2024-01-25T14:20:28;18.93;;;6.17;;
71734;SDS011;59577;52.122;5.406;2024-01-25T14:22:54;22.35;;;4.53;;
71734;SDS011;59577;52.122;5.406;2024-01-25T14:25:21;25.58;;;5.63;;
71734;SDS011;59577;52.122;5.406;2024-01-25T14:27:48;30.13;;;5.60;;
71734;SDS011;59577;52.122;5.406;2024-01-25T14:30:15;30.15;;;5.57;;
71734;SDS011;59577;52.122;5.406;2024-01-25T14:32:42;20.30;;;5.90;;